N223KC PHNL-PHOG
Flight info
| Callsign | N223KC |
|---|---|
| Flight time | 0h 35m |
| Altitude | VFR/095 |
| Route | |
| Aircraft | C208/L-VGD/C |
Departure
| Time | 2026-04-21 23:59 |
|---|---|
| Airport | Daniel K. Inouye International Airport (PHNL) |
Arrival
| Time | 2026-04-22 00:34 |
|---|---|
| Airport | Kahului International Airport (PHOG) |
| Time | Latitude | Longitude | Altitude | Speed | Heading |
|---|---|---|---|---|---|
| 2026-04-21 23:54 | 21.31421 | -157.92246 | 13 ft | 0 kts | 325° |
| 2026-04-21 23:56 | 21.31449 | -157.92294 | 12 ft | 25 kts | 276° |
| 2026-04-21 23:57 | 21.31392 | -157.92422 | 11 ft | 35 kts | 234° |
| 2026-04-21 23:57 | 21.31309 | -157.92637 | 15 ft | 16 kts | 292° |
| 2026-04-21 23:57 | 21.31332 | -157.92655 | 16 ft | 0 kts | 345° |
| 2026-04-21 23:58 | 21.31356 | -157.92670 | 17 ft | 19 kts | 323° |
| 2026-04-21 23:58 | 21.31438 | -157.92649 | 16 ft | 23 kts | 47° |
| 2026-04-21 23:58 | 21.31669 | -157.92319 | 41 ft | 90 kts | 54° |
| 2026-04-21 23:59 | 21.32119 | -157.91699 | 333 ft | 116 kts | 52° |
| 2026-04-21 23:59 | 21.32656 | -157.90991 | 631 ft | 131 kts | 57° |
| 2026-04-21 23:59 | 21.32762 | -157.90088 | 988 ft | 130 kts | 114° |
| 2026-04-21 23:59 | 21.32148 | -157.89309 | 958 ft | 145 kts | 136° |
| 2026-04-22 00:00 | 21.31452 | -157.88543 | 1117 ft | 137 kts | 135° |
| 2026-04-22 00:00 | 21.30765 | -157.87792 | 1159 ft | 145 kts | 135° |
| 2026-04-22 00:00 | 21.30059 | -157.87019 | 1259 ft | 150 kts | 135° |
| 2026-04-22 00:00 | 21.29295 | -157.86199 | 1391 ft | 159 kts | 135° |
| 2026-04-22 00:01 | 21.28491 | -157.85360 | 1496 ft | 165 kts | 135° |
| 2026-04-22 00:01 | 21.27838 | -157.84325 | 1481 ft | 171 kts | 117° |
| 2026-04-22 00:01 | 21.27279 | -157.83184 | 1482 ft | 174 kts | 118° |
| 2026-04-22 00:01 | 21.26710 | -157.82030 | 1488 ft | 176 kts | 118° |
| 2026-04-22 00:02 | 21.26136 | -157.80867 | 1493 ft | 177 kts | 118° |
| 2026-04-22 00:02 | 21.25567 | -157.79710 | 1608 ft | 171 kts | 117° |
| 2026-04-22 00:02 | 21.25032 | -157.78616 | 1847 ft | 162 kts | 117° |
| 2026-04-22 00:02 | 21.24505 | -157.77543 | 1966 ft | 166 kts | 118° |
| 2026-04-22 00:03 | 21.23948 | -157.76424 | 1967 ft | 173 kts | 118° |
| 2026-04-22 00:03 | 21.23378 | -157.75280 | 1974 ft | 175 kts | 117° |
| 2026-04-22 00:03 | 21.22807 | -157.74137 | 1975 ft | 177 kts | 118° |
| 2026-04-22 00:03 | 21.22226 | -157.72974 | 1976 ft | 177 kts | 118° |
| 2026-04-22 00:04 | 21.21644 | -157.71807 | 1972 ft | 178 kts | 117° |
| 2026-04-22 00:04 | 21.21056 | -157.70635 | 1971 ft | 179 kts | 118° |
| 2026-04-22 00:04 | 21.20466 | -157.69459 | 1971 ft | 179 kts | 117° |
| 2026-04-22 00:04 | 21.19875 | -157.68286 | 1970 ft | 179 kts | 118° |
| 2026-04-22 00:05 | 21.19282 | -157.67111 | 1972 ft | 179 kts | 118° |
| 2026-04-22 00:05 | 21.18687 | -157.65936 | 1975 ft | 179 kts | 118° |
| 2026-04-22 00:05 | 21.18092 | -157.64766 | 1973 ft | 178 kts | 118° |
| 2026-04-22 00:05 | 21.17502 | -157.63610 | 1973 ft | 176 kts | 118° |
| 2026-04-22 00:06 | 21.16919 | -157.62458 | 1976 ft | 175 kts | 117° |
| 2026-04-22 00:06 | 21.16338 | -157.61314 | 1992 ft | 175 kts | 118° |
| 2026-04-22 00:06 | 21.15757 | -157.60169 | 1991 ft | 175 kts | 117° |
| 2026-04-22 00:06 | 21.15171 | -157.59021 | 1988 ft | 176 kts | 117° |
| 2026-04-22 00:07 | 21.14587 | -157.57889 | 1990 ft | 176 kts | 118° |
| 2026-04-22 00:07 | 21.13992 | -157.56743 | 1996 ft | 176 kts | 118° |
| 2026-04-22 00:07 | 21.13404 | -157.55596 | 1993 ft | 176 kts | 117° |
| 2026-04-22 00:07 | 21.12814 | -157.54451 | 1993 ft | 175 kts | 118° |
| 2026-04-22 00:08 | 21.12222 | -157.53308 | 1993 ft | 176 kts | 117° |
| 2026-04-22 00:08 | 21.11629 | -157.52166 | 1990 ft | 176 kts | 118° |
| 2026-04-22 00:08 | 21.11051 | -157.51053 | 2193 ft | 166 kts | 117° |
| 2026-04-22 00:08 | 21.10499 | -157.49986 | 2435 ft | 162 kts | 118° |
| 2026-04-22 00:09 | 21.09959 | -157.48932 | 2670 ft | 161 kts | 117° |
| 2026-04-22 00:09 | 21.09425 | -157.47884 | 2912 ft | 160 kts | 117° |
| 2026-04-22 00:09 | 21.08885 | -157.46842 | 3157 ft | 160 kts | 118° |
| 2026-04-22 00:09 | 21.08347 | -157.45809 | 3400 ft | 158 kts | 118° |
| 2026-04-22 00:10 | 21.07814 | -157.44780 | 3636 ft | 158 kts | 117° |
| 2026-04-22 00:10 | 21.07286 | -157.43753 | 3878 ft | 157 kts | 117° |
| 2026-04-22 00:10 | 21.06763 | -157.42722 | 4122 ft | 158 kts | 117° |
| 2026-04-22 00:10 | 21.06241 | -157.41689 | 4368 ft | 158 kts | 118° |
| 2026-04-22 00:11 | 21.05718 | -157.40654 | 4617 ft | 158 kts | 117° |
| 2026-04-22 00:11 | 21.05195 | -157.39618 | 4863 ft | 158 kts | 117° |
| 2026-04-22 00:11 | 21.04675 | -157.38583 | 5104 ft | 158 kts | 117° |
| 2026-04-22 00:11 | 21.04158 | -157.37546 | 5341 ft | 158 kts | 117° |
| 2026-04-22 00:12 | 21.03643 | -157.36512 | 5579 ft | 158 kts | 117° |
| 2026-04-22 00:12 | 21.03130 | -157.35474 | 5830 ft | 158 kts | 117° |
| 2026-04-22 00:12 | 21.02618 | -157.34434 | 6070 ft | 158 kts | 117° |
| 2026-04-22 00:12 | 21.02116 | -157.33408 | 6314 ft | 158 kts | 117° |
| 2026-04-22 00:13 | 21.01604 | -157.32361 | 6495 ft | 162 kts | 117° |
| 2026-04-22 00:13 | 21.01060 | -157.31253 | 6503 ft | 173 kts | 118° |
| 2026-04-22 00:13 | 21.00493 | -157.30099 | 6508 ft | 177 kts | 118° |
| 2026-04-22 00:13 | 20.99916 | -157.28920 | 6508 ft | 180 kts | 118° |
| 2026-04-22 00:14 | 20.99334 | -157.27728 | 6512 ft | 181 kts | 118° |
| 2026-04-22 00:14 | 20.98747 | -157.26533 | 6510 ft | 182 kts | 118° |
| 2026-04-22 00:14 | 20.98158 | -157.25334 | 6508 ft | 182 kts | 118° |
| 2026-04-22 00:14 | 20.97570 | -157.24135 | 6507 ft | 182 kts | 118° |
| 2026-04-22 00:15 | 20.96982 | -157.22935 | 6509 ft | 182 kts | 118° |
| 2026-04-22 00:15 | 20.96393 | -157.21732 | 6507 ft | 182 kts | 117° |
| 2026-04-22 00:15 | 20.95804 | -157.20532 | 6512 ft | 182 kts | 118° |
| 2026-04-22 00:15 | 20.95215 | -157.19333 | 6508 ft | 182 kts | 118° |
| 2026-04-22 00:16 | 20.94624 | -157.18131 | 6507 ft | 182 kts | 118° |
| 2026-04-22 00:16 | 20.94034 | -157.16930 | 6505 ft | 182 kts | 117° |
| 2026-04-22 00:16 | 20.93443 | -157.15728 | 6508 ft | 182 kts | 117° |
| 2026-04-22 00:16 | 20.92861 | -157.14545 | 6509 ft | 182 kts | 118° |
| 2026-04-22 00:17 | 20.92268 | -157.13342 | 6538 ft | 183 kts | 118° |
| 2026-04-22 00:17 | 20.91676 | -157.12138 | 6539 ft | 183 kts | 117° |
| 2026-04-22 00:17 | 20.91082 | -157.10936 | 6541 ft | 183 kts | 118° |
| 2026-04-22 00:17 | 20.90488 | -157.09735 | 6545 ft | 183 kts | 118° |
| 2026-04-22 00:18 | 20.89895 | -157.08534 | 6548 ft | 182 kts | 118° |
| 2026-04-22 00:18 | 20.89303 | -157.07334 | 6554 ft | 182 kts | 118° |
| 2026-04-22 00:18 | 20.88712 | -157.06135 | 6559 ft | 182 kts | 118° |
| 2026-04-22 00:18 | 20.88120 | -157.04934 | 6563 ft | 183 kts | 117° |
| 2026-04-22 00:19 | 20.87526 | -157.03733 | 6568 ft | 183 kts | 118° |
| 2026-04-22 00:19 | 20.86930 | -157.02527 | 6570 ft | 183 kts | 118° |
| 2026-04-22 00:19 | 20.86335 | -157.01322 | 6575 ft | 183 kts | 118° |
| 2026-04-22 00:19 | 20.85742 | -157.00116 | 6573 ft | 183 kts | 118° |
| 2026-04-22 00:20 | 20.85149 | -156.98912 | 6578 ft | 183 kts | 118° |
| 2026-04-22 00:20 | 20.84556 | -156.97708 | 6576 ft | 183 kts | 118° |
| 2026-04-22 00:20 | 20.83963 | -156.96507 | 6575 ft | 182 kts | 118° |
| 2026-04-22 00:20 | 20.83373 | -156.95305 | 6574 ft | 182 kts | 118° |
| 2026-04-22 00:21 | 20.82785 | -156.94107 | 6572 ft | 182 kts | 118° |
| 2026-04-22 00:21 | 20.82198 | -156.92911 | 6570 ft | 182 kts | 118° |
| 2026-04-22 00:21 | 20.81610 | -156.91712 | 6574 ft | 182 kts | 117° |
| 2026-04-22 00:21 | 20.81021 | -156.90515 | 6573 ft | 182 kts | 118° |
| 2026-04-22 00:22 | 20.80439 | -156.89332 | 6573 ft | 182 kts | 118° |
| 2026-04-22 00:22 | 20.79849 | -156.88133 | 6571 ft | 182 kts | 117° |
| 2026-04-22 00:22 | 20.79257 | -156.86935 | 6570 ft | 182 kts | 118° |
| 2026-04-22 00:22 | 20.78665 | -156.85738 | 6572 ft | 182 kts | 118° |
| 2026-04-22 00:23 | 20.78070 | -156.84535 | 6569 ft | 182 kts | 118° |
| 2026-04-22 00:23 | 20.77490 | -156.83360 | 6564 ft | 182 kts | 118° |
| 2026-04-22 00:23 | 20.76898 | -156.82159 | 6564 ft | 182 kts | 118° |
| 2026-04-22 00:23 | 20.76308 | -156.80964 | 6557 ft | 182 kts | 118° |
| 2026-04-22 00:24 | 20.75718 | -156.79767 | 6555 ft | 182 kts | 118° |
| 2026-04-22 00:24 | 20.75166 | -156.78554 | 6543 ft | 181 kts | 107° |
| 2026-04-22 00:24 | 20.75126 | -156.77222 | 6543 ft | 180 kts | 84° |
| 2026-04-22 00:24 | 20.75231 | -156.75885 | 6541 ft | 181 kts | 85° |
| 2026-04-22 00:25 | 20.75332 | -156.74564 | 6541 ft | 181 kts | 85° |
| 2026-04-22 00:25 | 20.75438 | -156.73205 | 6535 ft | 181 kts | 85° |
| 2026-04-22 00:25 | 20.75544 | -156.71883 | 6532 ft | 181 kts | 85° |
| 2026-04-22 00:25 | 20.75652 | -156.70541 | 6530 ft | 181 kts | 85° |
| 2026-04-22 00:26 | 20.75761 | -156.69201 | 6526 ft | 181 kts | 85° |
| 2026-04-22 00:26 | 20.75871 | -156.67859 | 6521 ft | 181 kts | 85° |
| 2026-04-22 00:26 | 20.75981 | -156.66519 | 6500 ft | 181 kts | 85° |
| 2026-04-22 00:26 | 20.76091 | -156.65180 | 6501 ft | 181 kts | 85° |
| 2026-04-22 00:27 | 20.76200 | -156.63838 | 6501 ft | 181 kts | 84° |
| 2026-04-22 00:27 | 20.76309 | -156.62497 | 6501 ft | 181 kts | 85° |
| 2026-04-22 00:27 | 20.76418 | -156.61155 | 6499 ft | 181 kts | 85° |
| 2026-04-22 00:27 | 20.76530 | -156.59813 | 6503 ft | 181 kts | 85° |
| 2026-04-22 00:28 | 20.76642 | -156.58470 | 6499 ft | 181 kts | 85° |
| 2026-04-22 00:28 | 20.76753 | -156.57127 | 6500 ft | 181 kts | 85° |
| 2026-04-22 00:28 | 20.76866 | -156.55776 | 6392 ft | 184 kts | 85° |
| 2026-04-22 00:28 | 20.76960 | -156.54530 | 6126 ft | 155 kts | 85° |
| 2026-04-22 00:29 | 20.77051 | -156.53442 | 5838 ft | 140 kts | 85° |
| 2026-04-22 00:29 | 20.77135 | -156.52435 | 5559 ft | 132 kts | 84° |
| 2026-04-22 00:29 | 20.77218 | -156.51480 | 5298 ft | 127 kts | 83° |
| 2026-04-22 00:29 | 20.77458 | -156.50592 | 5036 ft | 123 kts | 70° |
| 2026-04-22 00:30 | 20.77824 | -156.49785 | 4786 ft | 119 kts | 59° |
| 2026-04-22 00:30 | 20.78267 | -156.49050 | 4520 ft | 116 kts | 49° |
| 2026-04-22 00:30 | 20.78798 | -156.48407 | 4267 ft | 115 kts | 49° |
| 2026-04-22 00:30 | 20.79421 | -156.47940 | 4007 ft | 113 kts | 13° |
| 2026-04-22 00:31 | 20.80195 | -156.47758 | 3602 ft | 121 kts | 14° |
| 2026-04-22 00:31 | 20.81099 | -156.47519 | 3036 ft | 135 kts | 14° |
| 2026-04-22 00:31 | 20.81959 | -156.47299 | 2745 ft | 128 kts | 13° |
| 2026-04-22 00:31 | 20.82891 | -156.47113 | 2074 ft | 143 kts | 13° |
| 2026-04-22 00:32 | 20.83720 | -156.46814 | 1845 ft | 100 kts | 21° |
| 2026-04-22 00:32 | 20.84334 | -156.46540 | 1584 ft | 92 kts | 13° |
| 2026-04-22 00:32 | 20.85012 | -156.46362 | 1309 ft | 113 kts | 19° |
| 2026-04-22 00:32 | 20.85638 | -156.45995 | 896 ft | 93 kts | 31° |
| 2026-04-22 00:33 | 20.86178 | -156.45637 | 692 ft | 88 kts | 34° |
| 2026-04-22 00:33 | 20.86683 | -156.45277 | 610 ft | 86 kts | 34° |
| 2026-04-22 00:33 | 20.87170 | -156.44905 | 488 ft | 85 kts | 33° |
| 2026-04-22 00:33 | 20.87653 | -156.44549 | 385 ft | 83 kts | 32° |
| 2026-04-22 00:34 | 20.88138 | -156.44204 | 234 ft | 85 kts | 35° |
| 2026-04-22 00:34 | 20.88608 | -156.43854 | 122 ft | 79 kts | 34° |
| 2026-04-22 00:34 | 20.89052 | -156.43528 | 61 ft | 76 kts | 34° |
| 2026-04-22 00:34 | 20.89336 | -156.43322 | 51 ft | 21 kts | 37° |
| 2026-04-22 00:35 | 20.89417 | -156.43166 | 48 ft | 19 kts | 81° |
| 2026-04-22 00:35 | 20.89420 | -156.43148 | 48 ft | 0 kts | 80° |
| 2026-04-22 00:36 | 20.89424 | -156.43126 | 47 ft | 18 kts | 71° |
| 2026-04-22 00:37 | 20.89487 | -156.43061 | 45 ft | 18 kts | 33° |
| 2026-04-22 00:37 | 20.89569 | -156.42956 | 42 ft | 0 kts | 121° |